sensor_id;sensor_type;location;lat;lon;timestamp;P1;durP1;ratioP1;P2;durP2;ratioP2
37267;SDS011;23154;52.542;13.362;2024-03-23T00:51:20;30.23;;;5.95;;
37267;SDS011;23154;52.542;13.362;2024-03-23T00:53:46;31.83;;;5.68;;
37267;SDS011;23154;52.542;13.362;2024-03-23T00:56:12;34.38;;;6.10;;
37267;SDS011;23154;52.542;13.362;2024-03-23T00:58:38;32.65;;;5.55;;
37267;SDS011;23154;52.542;13.362;2024-03-23T01:01:04;32.55;;;5.82;;
37267;SDS011;23154;52.542;13.362;2024-03-23T01:03:30;31.73;;;6.22;;
37267;SDS011;23154;52.542;13.362;2024-03-23T01:05:59;29.80;;;4.97;;
37267;SDS011;23154;52.542;13.362;2024-03-23T01:08:25;32.13;;;5.93;;
37267;SDS011;23154;52.542;13.362;2024-03-23T01:10:58;31.08;;;5.90;;
37267;SDS011;23154;52.542;13.362;2024-03-23T01:13:25;33.17;;;6.18;;
37267;SDS011;23154;52.542;13.362;2024-03-23T01:15:51;27.88;;;4.80;;
37267;SDS011;23154;52.542;13.362;2024-03-23T01:18:18;26.80;;;5.05;;
37267;SDS011;23154;52.542;13.362;2024-03-23T01:20:44;31.63;;;6.20;;
37267;SDS011;23154;52.542;13.362;2024-03-23T01:23:10;34.65;;;5.95;;
37267;SDS011;23154;52.542;13.362;2024-03-23T01:25:36;34.65;;;5.65;;
37267;SDS011;23154;52.542;13.362;2024-03-23T01:28:02;35.10;;;5.68;;
37267;SDS011;23154;52.542;13.362;2024-03-23T01:30:28;32.78;;;6.13;;
37267;SDS011;23154;52.542;13.362;2024-03-23T01:32:55;34.30;;;6.63;;
37267;SDS011;23154;52.542;13.362;2024-03-23T01:35:21;31.48;;;6.20;;
37267;SDS011;23154;52.542;13.362;2024-03-23T01:37:47;35.35;;;6.32;;
37267;SDS011;23154;52.542;13.362;2024-03-23T01:40:13;36.08;;;5.75;;
37267;SDS011;23154;52.542;13.362;2024-03-23T01:42:39;34.97;;;6.35;;
37267;SDS011;23154;52.542;13.362;2024-03-23T01:45:08;36.78;;;6.43;;
37267;SDS011;23154;52.542;13.362;2024-03-23T01:47:35;38.27;;;6.97;;
37267;SDS011;23154;52.542;13.362;2024-03-23T01:50:01;28.85;;;5.20;;
37267;SDS011;23154;52.542;13.362;2024-03-23T01:52:27;36.03;;;5.85;;
37267;SDS011;23154;52.542;13.362;2024-03-23T01:54:53;35.88;;;6.30;;
37267;SDS011;23154;52.542;13.362;2024-03-23T01:57:20;31.52;;;5.75;;
37267;SDS011;23154;52.542;13.362;2024-03-23T01:59:46;31.40;;;6.05;;
37267;SDS011;23154;52.542;13.362;2024-03-23T02:02:12;34.00;;;5.93;;
37267;SDS011;23154;52.542;13.362;2024-03-23T02:04:38;31.95;;;5.90;;
37267;SDS011;23154;52.542;13.362;2024-03-23T02:07:05;35.55;;;6.65;;
37267;SDS011;23154;52.542;13.362;2024-03-23T02:09:32;34.85;;;6.28;;
37267;SDS011;23154;52.542;13.362;2024-03-23T02:11:58;43.33;;;7.07;;
37267;SDS011;23154;52.542;13.362;2024-03-23T02:14:24;33.47;;;6.15;;
37267;SDS011;23154;52.542;13.362;2024-03-23T02:16:50;31.42;;;5.53;;
37267;SDS011;23154;52.542;13.362;2024-03-23T02:19:16;32.03;;;6.07;;
37267;SDS011;23154;52.542;13.362;2024-03-23T02:21:42;28.25;;;5.43;;
37267;SDS011;23154;52.542;13.362;2024-03-23T02:24:08;33.08;;;6.60;;
37267;SDS011;23154;52.542;13.362;2024-03-23T02:26:34;32.78;;;6.88;;
37267;SDS011;23154;52.542;13.362;2024-03-23T02:29:01;38.60;;;7.45;;
37267;SDS011;23154;52.542;13.362;2024-03-23T02:31:27;36.03;;;6.45;;
37267;SDS011;23154;52.542;13.362;2024-03-23T02:33:53;33.33;;;6.38;;
37267;SDS011;23154;52.542;13.362;2024-03-23T02:36:19;38.75;;;6.75;;
37267;SDS011;23154;52.542;13.362;2024-03-23T02:38:46;41.67;;;7.05;;
37267;SDS011;23154;52.542;13.362;2024-03-23T02:41:12;41.42;;;6.65;;
37267;SDS011;23154;52.542;13.362;2024-03-23T02:43:38;36.15;;;6.43;;
37267;SDS011;23154;52.542;13.362;2024-03-23T02:46:04;38.95;;;7.22;;
37267;SDS011;23154;52.542;13.362;2024-03-23T02:48:30;37.90;;;7.53;;
37267;SDS011;23154;52.542;13.362;2024-03-23T02:50:56;33.35;;;6.38;;
37267;SDS011;23154;52.542;13.362;2024-03-23T02:53:22;39.20;;;6.53;;
37267;SDS011;23154;52.542;13.362;2024-03-23T02:55:48;34.63;;;6.40;;
37267;SDS011;23154;52.542;13.362;2024-03-23T02:58:14;34.25;;;7.13;;
37267;SDS011;23154;52.542;13.362;2024-03-23T03:00:40;35.28;;;7.07;;
37267;SDS011;23154;52.542;13.362;2024-03-23T03:03:06;37.70;;;6.82;;
37267;SDS011;23154;52.542;13.362;2024-03-23T03:05:33;36.95;;;6.85;;
37267;SDS011;23154;52.542;13.362;2024-03-23T03:07:59;35.35;;;7.00;;
37267;SDS011;23154;52.542;13.362;2024-03-23T03:10:25;33.42;;;6.60;;
37267;SDS011;23154;52.542;13.362;2024-03-23T03:12:51;33.55;;;7.57;;
37267;SDS011;23154;52.542;13.362;2024-03-23T03:15:17;33.65;;;6.45;;
37267;SDS011;23154;52.542;13.362;2024-03-23T03:17:44;35.50;;;6.80;;
37267;SDS011;23154;52.542;13.362;2024-03-23T03:20:15;37.35;;;7.20;;
37267;SDS011;23154;52.542;13.362;2024-03-23T03:22:42;29.17;;;6.63;;
37267;SDS011;23154;52.542;13.362;2024-03-23T03:25:08;38.55;;;7.00;;
37267;SDS011;23154;52.542;13.362;2024-03-23T03:27:35;32.92;;;7.00;;
37267;SDS011;23154;52.542;13.362;2024-03-23T03:30:01;34.15;;;6.75;;
37267;SDS011;23154;52.542;13.362;2024-03-23T03:32:28;40.08;;;7.20;;
37267;SDS011;23154;52.542;13.362;2024-03-23T03:34:54;35.10;;;6.60;;
37267;SDS011;23154;52.542;13.362;2024-03-23T03:37:20;31.60;;;6.93;;
37267;SDS011;23154;52.542;13.362;2024-03-23T03:39:46;28.90;;;6.55;;
37267;SDS011;23154;52.542;13.362;2024-03-23T03:42:12;25.50;;;6.18;;
37267;SDS011;23154;52.542;13.362;2024-03-23T03:44:38;30.38;;;6.68;;
37267;SDS011;23154;52.542;13.362;2024-03-23T03:47:05;36.92;;;7.03;;
37267;SDS011;23154;52.542;13.362;2024-03-23T03:49:31;31.10;;;6.22;;
37267;SDS011;23154;52.542;13.362;2024-03-23T03:51:57;34.28;;;6.95;;
37267;SDS011;23154;52.542;13.362;2024-03-23T03:54:23;26.92;;;5.60;;
37267;SDS011;23154;52.542;13.362;2024-03-23T03:56:49;26.10;;;4.95;;
37267;SDS011;23154;52.542;13.362;2024-03-23T03:59:15;27.05;;;5.53;;
37267;SDS011;23154;52.542;13.362;2024-03-23T04:01:41;21.63;;;4.15;;
37267;SDS011;23154;52.542;13.362;2024-03-23T04:04:07;27.13;;;5.10;;
37267;SDS011;23154;52.542;13.362;2024-03-23T04:06:34;23.33;;;4.47;;
37267;SDS011;23154;52.542;13.362;2024-03-23T04:09:00;23.80;;;4.43;;
37267;SDS011;23154;52.542;13.362;2024-03-23T04:11:26;22.80;;;4.47;;
37267;SDS011;23154;52.542;13.362;2024-03-23T04:13:52;26.52;;;4.35;;
37267;SDS011;23154;52.542;13.362;2024-03-23T04:16:26;23.17;;;4.68;;
37267;SDS011;23154;52.542;13.362;2024-03-23T04:18:52;20.77;;;4.25;;
37267;SDS011;23154;52.542;13.362;2024-03-23T04:21:18;20.98;;;4.45;;
37267;SDS011;23154;52.542;13.362;2024-03-23T04:23:45;19.70;;;3.90;;
37267;SDS011;23154;52.542;13.362;2024-03-23T04:26:11;22.17;;;3.72;;
37267;SDS011;23154;52.542;13.362;2024-03-23T04:28:37;18.77;;;3.72;;
37267;SDS011;23154;52.542;13.362;2024-03-23T04:31:04;16.95;;;3.58;;
37267;SDS011;23154;52.542;13.362;2024-03-23T04:33:30;18.80;;;3.42;;
37267;SDS011;23154;52.542;13.362;2024-03-23T04:35:56;24.58;;;3.60;;
37267;SDS011;23154;52.542;13.362;2024-03-23T04:38:22;18.08;;;3.33;;
37267;SDS011;23154;52.542;13.362;2024-03-23T04:40:55;11.13;;;3.00;;
37267;SDS011;23154;52.542;13.362;2024-03-23T04:43:22;13.60;;;3.00;;
37267;SDS011;23154;52.542;13.362;2024-03-23T04:45:48;22.30;;;3.65;;
37267;SDS011;23154;52.542;13.362;2024-03-23T04:48:14;20.60;;;3.85;;
37267;SDS011;23154;52.542;13.362;2024-03-23T04:50:40;19.40;;;3.67;;
37267;SDS011;23154;52.542;13.362;2024-03-23T04:53:07;18.98;;;3.45;;
37267;SDS011;23154;52.542;13.362;2024-03-23T04:55:33;16.67;;;3.70;;
37267;SDS011;23154;52.542;13.362;2024-03-23T04:57:59;15.50;;;3.70;;
37267;SDS011;23154;52.542;13.362;2024-03-23T05:00:26;18.17;;;3.58;;
37267;SDS011;23154;52.542;13.362;2024-03-23T05:02:52;20.75;;;3.47;;
37267;SDS011;23154;52.542;13.362;2024-03-23T05:05:18;16.15;;;3.35;;
37267;SDS011;23154;52.542;13.362;2024-03-23T05:07:44;23.00;;;3.50;;
37267;SDS011;23154;52.542;13.362;2024-03-23T05:10:10;20.73;;;4.35;;
37267;SDS011;23154;52.542;13.362;2024-03-23T05:12:37;19.13;;;3.90;;
37267;SDS011;23154;52.542;13.362;2024-03-23T05:15:04;19.90;;;4.10;;
37267;SDS011;23154;52.542;13.362;2024-03-23T05:17:31;25.52;;;4.38;;
37267;SDS011;23154;52.542;13.362;2024-03-23T05:19:57;20.30;;;4.32;;
37267;SDS011;23154;52.542;13.362;2024-03-23T05:22:23;18.92;;;4.28;;
37267;SDS011;23154;52.542;13.362;2024-03-23T05:24:49;24.75;;;4.65;;
37267;SDS011;23154;52.542;13.362;2024-03-23T05:27:15;22.90;;;4.40;;
37267;SDS011;23154;52.542;13.362;2024-03-23T05:29:41;27.15;;;4.72;;
37267;SDS011;23154;52.542;13.362;2024-03-23T05:32:07;20.73;;;4.80;;
37267;SDS011;23154;52.542;13.362;2024-03-23T05:34:33;24.30;;;4.88;;
37267;SDS011;23154;52.542;13.362;2024-03-23T05:36:59;26.15;;;6.05;;
37267;SDS011;23154;52.542;13.362;2024-03-23T05:39:25;27.60;;;5.35;;
37267;SDS011;23154;52.542;13.362;2024-03-23T05:41:51;22.40;;;5.40;;
37267;SDS011;23154;52.542;13.362;2024-03-23T05:44:17;21.27;;;4.82;;
37267;SDS011;23154;52.542;13.362;2024-03-23T05:46:44;21.55;;;4.20;;
37267;SDS011;23154;52.542;13.362;2024-03-23T05:49:13;21.40;;;4.60;;
37267;SDS011;23154;52.542;13.362;2024-03-23T05:51:39;22.67;;;4.43;;
37267;SDS011;23154;52.542;13.362;2024-03-23T05:54:05;19.92;;;3.97;;
37267;SDS011;23154;52.542;13.362;2024-03-23T05:56:31;18.38;;;4.60;;
37267;SDS011;23154;52.542;13.362;2024-03-23T05:58:57;21.33;;;4.78;;
37267;SDS011;23154;52.542;13.362;2024-03-23T06:01:23;22.95;;;4.78;;
37267;SDS011;23154;52.542;13.362;2024-03-23T06:03:49;21.33;;;4.68;;
37267;SDS011;23154;52.542;13.362;2024-03-23T06:06:16;21.58;;;5.32;;
37267;SDS011;23154;52.542;13.362;2024-03-23T06:08:42;26.90;;;5.65;;
37267;SDS011;23154;52.542;13.362;2024-03-23T06:11:08;21.98;;;5.78;;
37267;SDS011;23154;52.542;13.362;2024-03-23T06:13:34;25.92;;;4.90;;
37267;SDS011;23154;52.542;13.362;2024-03-23T06:16:00;21.95;;;4.68;;
37267;SDS011;23154;52.542;13.362;2024-03-23T06:18:26;25.25;;;5.25;;
37267;SDS011;23154;52.542;13.362;2024-03-23T06:20:53;26.85;;;5.05;;
37267;SDS011;23154;52.542;13.362;2024-03-23T06:23:19;22.02;;;5.30;;
37267;SDS011;23154;52.542;13.362;2024-03-23T06:25:45;18.95;;;4.72;;
37267;SDS011;23154;52.542;13.362;2024-03-23T06:28:11;21.65;;;5.03;;
37267;SDS011;23154;52.542;13.362;2024-03-23T06:30:37;22.52;;;4.43;;
37267;SDS011;23154;52.542;13.362;2024-03-23T06:33:03;19.63;;;4.28;;
37267;SDS011;23154;52.542;13.362;2024-03-23T06:35:30;16.60;;;4.90;;
37267;SDS011;23154;52.542;13.362;2024-03-23T06:37:56;22.80;;;5.25;;
37267;SDS011;23154;52.542;13.362;2024-03-23T06:40:23;22.00;;;4.82;;
37267;SDS011;23154;52.542;13.362;2024-03-23T06:42:49;23.45;;;4.95;;
37267;SDS011;23154;52.542;13.362;2024-03-23T06:45:16;18.65;;;4.38;;
37267;SDS011;23154;52.542;13.362;2024-03-23T06:47:44;24.25;;;5.22;;
37267;SDS011;23154;52.542;13.362;2024-03-23T06:50:10;20.67;;;4.18;;
37267;SDS011;23154;52.542;13.362;2024-03-23T06:52:36;18.92;;;4.20;;
37267;SDS011;23154;52.542;13.362;2024-03-23T06:55:02;25.73;;;5.18;;
37267;SDS011;23154;52.542;13.362;2024-03-23T06:57:30;21.15;;;3.97;;
37267;SDS011;23154;52.542;13.362;2024-03-23T06:59:56;23.13;;;4.10;;
37267;SDS011;23154;52.542;13.362;2024-03-23T07:02:22;18.45;;;4.70;;
37267;SDS011;23154;52.542;13.362;2024-03-23T07:04:48;18.73;;;4.07;;
37267;SDS011;23154;52.542;13.362;2024-03-23T07:07:14;19.88;;;5.00;;
37267;SDS011;23154;52.542;13.362;2024-03-23T07:09:40;20.80;;;5.07;;
37267;SDS011;23154;52.542;13.362;2024-03-23T07:12:06;28.25;;;5.15;;
37267;SDS011;23154;52.542;13.362;2024-03-23T07:14:32;18.23;;;4.97;;
37267;SDS011;23154;52.542;13.362;2024-03-23T07:16:58;21.85;;;4.80;;
37267;SDS011;23154;52.542;13.362;2024-03-23T07:19:24;19.95;;;4.40;;
37267;SDS011;23154;52.542;13.362;2024-03-23T07:21:50;23.05;;;4.93;;
37267;SDS011;23154;52.542;13.362;2024-03-23T07:24:16;22.42;;;4.95;;
37267;SDS011;23154;52.542;13.362;2024-03-23T07:26:42;24.50;;;4.85;;
37267;SDS011;23154;52.542;13.362;2024-03-23T07:29:08;22.17;;;4.57;;
37267;SDS011;23154;52.542;13.362;2024-03-23T07:31:34;23.83;;;4.40;;
37267;SDS011;23154;52.542;13.362;2024-03-23T07:34:00;15.20;;;4.38;;
37267;SDS011;23154;52.542;13.362;2024-03-23T07:36:26;16.23;;;4.15;;
37267;SDS011;23154;52.542;13.362;2024-03-23T07:38:52;25.30;;;4.65;;
37267;SDS011;23154;52.542;13.362;2024-03-23T07:41:19;20.27;;;4.28;;
37267;SDS011;23154;52.542;13.362;2024-03-23T07:43:45;18.38;;;3.55;;
37267;SDS011;23154;52.542;13.362;2024-03-23T07:46:12;21.17;;;4.72;;
37267;SDS011;23154;52.542;13.362;2024-03-23T07:48:38;22.42;;;4.35;;
37267;SDS011;23154;52.542;13.362;2024-03-23T07:51:08;17.58;;;4.00;;
37267;SDS011;23154;52.542;13.362;2024-03-23T07:53:35;21.42;;;4.07;;
37267;SDS011;23154;52.542;13.362;2024-03-23T07:56:05;17.67;;;4.07;;
37267;SDS011;23154;52.542;13.362;2024-03-23T07:58:31;20.42;;;4.45;;
37267;SDS011;23154;52.542;13.362;2024-03-23T08:01:11;21.88;;;4.43;;
37267;SDS011;23154;52.542;13.362;2024-03-23T08:03:38;21.48;;;5.10;;
37267;SDS011;23154;52.542;13.362;2024-03-23T08:08:33;19.63;;;4.32;;
37267;SDS011;23154;52.542;13.362;2024-03-23T08:10:59;21.40;;;3.83;;
37267;SDS011;23154;52.542;13.362;2024-03-23T08:13:26;20.17;;;6.10;;
37267;SDS011;23154;52.542;13.362;2024-03-23T08:15:52;16.05;;;4.68;;
37267;SDS011;23154;52.542;13.362;2024-03-23T08:18:18;16.05;;;4.55;;
37267;SDS011;23154;52.542;13.362;2024-03-23T08:20:44;15.38;;;4.13;;
37267;SDS011;23154;52.542;13.362;2024-03-23T08:23:10;14.40;;;3.70;;
37267;SDS011;23154;52.542;13.362;2024-03-23T08:25:36;19.55;;;4.85;;
37267;SDS011;23154;52.542;13.362;2024-03-23T08:28:02;21.90;;;5.07;;
37267;SDS011;23154;52.542;13.362;2024-03-23T08:30:28;21.42;;;4.93;;
37267;SDS011;23154;52.542;13.362;2024-03-23T08:32:54;20.40;;;7.18;;
37267;SDS011;23154;52.542;13.362;2024-03-23T08:35:20;22.25;;;5.30;;
37267;SDS011;23154;52.542;13.362;2024-03-23T08:37:46;22.50;;;5.57;;
37267;SDS011;23154;52.542;13.362;2024-03-23T08:40:12;15.35;;;5.00;;
37267;SDS011;23154;52.542;13.362;2024-03-23T08:42:38;21.02;;;5.28;;
37267;SDS011;23154;52.542;13.362;2024-03-23T08:45:04;27.73;;;5.03;;
37267;SDS011;23154;52.542;13.362;2024-03-23T08:47:34;20.10;;;5.10;;
37267;SDS011;23154;52.542;13.362;2024-03-23T08:50:00;14.20;;;4.40;;
37267;SDS011;23154;52.542;13.362;2024-03-23T08:52:26;22.75;;;5.68;;
37267;SDS011;23154;52.542;13.362;2024-03-23T08:54:54;24.17;;;5.45;;
37267;SDS011;23154;52.542;13.362;2024-03-23T08:57:21;24.52;;;5.80;;
37267;SDS011;23154;52.542;13.362;2024-03-23T08:59:47;22.88;;;8.07;;
37267;SDS011;23154;52.542;13.362;2024-03-23T09:02:13;17.52;;;4.60;;
37267;SDS011;23154;52.542;13.362;2024-03-23T09:04:39;11.93;;;3.85;;
37267;SDS011;23154;52.542;13.362;2024-03-23T09:07:05;16.65;;;3.85;;
37267;SDS011;23154;52.542;13.362;2024-03-23T09:09:31;11.82;;;3.42;;
37267;SDS011;23154;52.542;13.362;2024-03-23T09:11:57;16.02;;;4.07;;
37267;SDS011;23154;52.542;13.362;2024-03-23T09:14:23;12.82;;;3.67;;
37267;SDS011;23154;52.542;13.362;2024-03-23T09:16:49;16.60;;;3.47;;
37267;SDS011;23154;52.542;13.362;2024-03-23T09:19:16;16.08;;;4.07;;
37267;SDS011;23154;52.542;13.362;2024-03-23T09:21:43;14.32;;;6.50;;
37267;SDS011;23154;52.542;13.362;2024-03-23T09:24:09;15.18;;;4.10;;
37267;SDS011;23154;52.542;13.362;2024-03-23T09:26:35;12.18;;;3.83;;
37267;SDS011;23154;52.542;13.362;2024-03-23T09:29:01;14.20;;;4.28;;
37267;SDS011;23154;52.542;13.362;2024-03-23T09:31:27;11.52;;;3.83;;
37267;SDS011;23154;52.542;13.362;2024-03-23T09:33:53;12.02;;;4.05;;
37267;SDS011;23154;52.542;13.362;2024-03-23T09:36:19;16.45;;;4.07;;
37267;SDS011;23154;52.542;13.362;2024-03-23T09:38:45;17.83;;;5.53;;
37267;SDS011;23154;52.542;13.362;2024-03-23T09:41:11;20.85;;;4.75;;
37267;SDS011;23154;52.542;13.362;2024-03-23T09:43:37;17.63;;;4.78;;
37267;SDS011;23154;52.542;13.362;2024-03-23T09:46:03;20.30;;;5.85;;
37267;SDS011;23154;52.542;13.362;2024-03-23T09:48:30;23.27;;;4.53;;
37267;SDS011;23154;52.542;13.362;2024-03-23T09:50:56;17.10;;;3.97;;
37267;SDS011;23154;52.542;13.362;2024-03-23T09:53:22;16.83;;;4.20;;
37267;SDS011;23154;52.542;13.362;2024-03-23T09:55:48;21.08;;;4.75;;
37267;SDS011;23154;52.542;13.362;2024-03-23T09:58:17;21.35;;;4.57;;
37267;SDS011;23154;52.542;13.362;2024-03-23T10:00:44;19.97;;;5.40;;
37267;SDS011;23154;52.542;13.362;2024-03-23T10:03:10;17.25;;;4.47;;
37267;SDS011;23154;52.542;13.362;2024-03-23T10:05:36;19.75;;;4.53;;
37267;SDS011;23154;52.542;13.362;2024-03-23T10:10:43;19.25;;;4.15;;
37267;SDS011;23154;52.542;13.362;2024-03-23T10:13:10;16.23;;;4.40;;
37267;SDS011;23154;52.542;13.362;2024-03-23T10:15:39;21.35;;;5.50;;
37267;SDS011;23154;52.542;13.362;2024-03-23T10:18:17;25.50;;;4.75;;
37267;SDS011;23154;52.542;13.362;2024-03-23T10:20:46;22.23;;;5.30;;
37267;SDS011;23154;52.542;13.362;2024-03-23T10:23:15;22.52;;;4.63;;
37267;SDS011;23154;52.542;13.362;2024-03-23T10:25:41;18.00;;;4.88;;
37267;SDS011;23154;52.542;13.362;2024-03-23T10:28:07;21.70;;;4.93;;
37267;SDS011;23154;52.542;13.362;2024-03-23T10:30:34;19.65;;;5.07;;
37267;SDS011;23154;52.542;13.362;2024-03-23T10:33:07;19.67;;;5.35;;
37267;SDS011;23154;52.542;13.362;2024-03-23T10:35:33;24.50;;;5.35;;
37267;SDS011;23154;52.542;13.362;2024-03-23T10:38:00;21.80;;;4.65;;
37267;SDS011;23154;52.542;13.362;2024-03-23T10:40:26;19.33;;;4.97;;
37267;SDS011;23154;52.542;13.362;2024-03-23T10:42:53;19.27;;;4.82;;
37267;SDS011;23154;52.542;13.362;2024-03-23T10:45:22;24.73;;;5.50;;
37267;SDS011;23154;52.542;13.362;2024-03-23T10:47:48;25.52;;;4.93;;
37267;SDS011;23154;52.542;13.362;2024-03-23T10:50:14;27.98;;;5.82;;
37267;SDS011;23154;52.542;13.362;2024-03-23T10:52:41;17.80;;;4.72;;
37267;SDS011;23154;52.542;13.362;2024-03-23T10:55:09;29.10;;;7.63;;
37267;SDS011;23154;52.542;13.362;2024-03-23T10:57:40;21.92;;;5.05;;
37267;SDS011;23154;52.542;13.362;2024-03-23T11:00:07;22.60;;;4.63;;
37267;SDS011;23154;52.542;13.362;2024-03-23T11:02:34;18.25;;;4.85;;
37267;SDS011;23154;52.542;13.362;2024-03-23T11:05:00;20.95;;;4.75;;
37267;SDS011;23154;52.542;13.362;2024-03-23T11:09:52;19.98;;;4.47;;
37267;SDS011;23154;52.542;13.362;2024-03-23T11:15:03;16.25;;;4.28;;
37267;SDS011;23154;52.542;13.362;2024-03-23T11:17:29;18.38;;;4.65;;
37267;SDS011;23154;52.542;13.362;2024-03-23T11:25:11;17.85;;;3.72;;
37267;SDS011;23154;52.542;13.362;2024-03-23T11:27:38;18.77;;;3.90;;
37267;SDS011;23154;52.542;13.362;2024-03-23T11:32:59;20.77;;;4.55;;
37267;SDS011;23154;52.542;13.362;2024-03-23T11:40:32;20.95;;;4.10;;
37267;SDS011;23154;52.542;13.362;2024-03-23T11:42:59;21.77;;;5.20;;
37267;SDS011;23154;52.542;13.362;2024-03-23T11:45:26;19.63;;;4.75;;
37267;SDS011;23154;52.542;13.362;2024-03-23T11:48:02;18.38;;;5.00;;
37267;SDS011;23154;52.542;13.362;2024-03-23T11:50:28;16.48;;;4.28;;
37267;SDS011;23154;52.542;13.362;2024-03-23T11:53:05;17.90;;;5.00;;
37267;SDS011;23154;52.542;13.362;2024-03-23T11:55:38;13.82;;;4.00;;
37267;SDS011;23154;52.542;13.362;2024-03-23T11:58:05;17.73;;;4.00;;
37267;SDS011;23154;52.542;13.362;2024-03-23T12:00:31;21.77;;;4.85;;
37267;SDS011;23154;52.542;13.362;2024-03-23T12:03:01;18.88;;;4.10;;
37267;SDS011;23154;52.542;13.362;2024-03-23T12:05:27;15.73;;;3.33;;
37267;SDS011;23154;52.542;13.362;2024-03-23T12:07:53;13.32;;;3.92;;
37267;SDS011;23154;52.542;13.362;2024-03-23T12:10:19;18.13;;;4.60;;
37267;SDS011;23154;52.542;13.362;2024-03-23T12:12:45;17.95;;;3.78;;
37267;SDS011;23154;52.542;13.362;2024-03-23T12:15:11;13.80;;;3.47;;
37267;SDS011;23154;52.542;13.362;2024-03-23T12:17:37;18.00;;;3.60;;
37267;SDS011;23154;52.542;13.362;2024-03-23T12:20:04;19.90;;;3.92;;
37267;SDS011;23154;52.542;13.362;2024-03-23T12:22:30;19.60;;;3.80;;
37267;SDS011;23154;52.542;13.362;2024-03-23T12:24:56;17.75;;;3.85;;
37267;SDS011;23154;52.542;13.362;2024-03-23T12:27:22;18.00;;;4.65;;
37267;SDS011;23154;52.542;13.362;2024-03-23T12:29:48;19.73;;;4.38;;
37267;SDS011;23154;52.542;13.362;2024-03-23T12:32:14;24.08;;;4.63;;
37267;SDS011;23154;52.542;13.362;2024-03-23T12:34:41;18.35;;;4.40;;
37267;SDS011;23154;52.542;13.362;2024-03-23T12:37:07;17.70;;;4.47;;
37267;SDS011;23154;52.542;13.362;2024-03-23T12:39:34;17.95;;;4.30;;
37267;SDS011;23154;52.542;13.362;2024-03-23T12:42:00;15.43;;;3.95;;
37267;SDS011;23154;52.542;13.362;2024-03-23T12:44:27;21.60;;;4.30;;
37267;SDS011;23154;52.542;13.362;2024-03-23T12:46:53;19.88;;;3.88;;
37267;SDS011;23154;52.542;13.362;2024-03-23T12:49:19;17.90;;;3.50;;
37267;SDS011;23154;52.542;13.362;2024-03-23T12:51:55;14.75;;;4.20;;
37267;SDS011;23154;52.542;13.362;2024-03-23T12:54:22;15.65;;;3.75;;
37267;SDS011;23154;52.542;13.362;2024-03-23T12:56:49;12.52;;;3.13;;
37267;SDS011;23154;52.542;13.362;2024-03-23T12:59:15;18.35;;;4.03;;
37267;SDS011;23154;52.542;13.362;2024-03-23T13:01:41;19.35;;;3.75;;
37267;SDS011;23154;52.542;13.362;2024-03-23T13:04:08;19.42;;;3.97;;
37267;SDS011;23154;52.542;13.362;2024-03-23T13:06:34;17.77;;;3.75;;
37267;SDS011;23154;52.542;13.362;2024-03-23T13:09:03;15.27;;;3.50;;
37267;SDS011;23154;52.542;13.362;2024-03-23T13:11:30;12.52;;;3.72;;
37267;SDS011;23154;52.542;13.362;2024-03-23T13:13:56;19.80;;;4.32;;
37267;SDS011;23154;52.542;13.362;2024-03-23T13:16:22;19.50;;;4.25;;
37267;SDS011;23154;52.542;13.362;2024-03-23T13:18:48;19.58;;;3.78;;
37267;SDS011;23154;52.542;13.362;2024-03-23T13:21:14;13.38;;;4.35;;
37267;SDS011;23154;52.542;13.362;2024-03-23T13:23:41;13.85;;;3.78;;
37267;SDS011;23154;52.542;13.362;2024-03-23T13:26:08;16.83;;;4.18;;
37267;SDS011;23154;52.542;13.362;2024-03-23T13:28:34;17.33;;;3.90;;
37267;SDS011;23154;52.542;13.362;2024-03-23T13:31:01;17.60;;;3.70;;
37267;SDS011;23154;52.542;13.362;2024-03-23T13:33:30;19.63;;;4.00;;
37267;SDS011;23154;52.542;13.362;2024-03-23T13:35:59;17.17;;;4.50;;
37267;SDS011;23154;52.542;13.362;2024-03-23T13:38:26;21.02;;;5.10;;
37267;SDS011;23154;52.542;13.362;2024-03-23T13:40:53;19.80;;;4.20;;
37267;SDS011;23154;52.542;13.362;2024-03-23T13:43:20;30.20;;;10.70;;
37267;SDS011;23154;52.542;13.362;2024-03-23T13:45:56;22.35;;;6.43;;
37267;SDS011;23154;52.542;13.362;2024-03-23T13:48:23;17.95;;;5.03;;
37267;SDS011;23154;52.542;13.362;2024-03-23T13:51:04;20.45;;;5.10;;
37267;SDS011;23154;52.542;13.362;2024-03-23T13:53:30;20.05;;;5.13;;
37267;SDS011;23154;52.542;13.362;2024-03-23T13:55:59;22.05;;;6.43;;
37267;SDS011;23154;52.542;13.362;2024-03-23T13:58:25;23.17;;;4.70;;
37267;SDS011;23154;52.542;13.362;2024-03-23T14:00:52;18.88;;;5.28;;
37267;SDS011;23154;52.542;13.362;2024-03-23T14:03:18;16.63;;;4.28;;
37267;SDS011;23154;52.542;13.362;2024-03-23T14:05:44;23.40;;;4.72;;
37267;SDS011;23154;52.542;13.362;2024-03-23T14:08:12;27.52;;;5.80;;
37267;SDS011;23154;52.542;13.362;2024-03-23T14:10:41;22.55;;;5.18;;
37267;SDS011;23154;52.542;13.362;2024-03-23T14:15:34;23.02;;;5.32;;
37267;SDS011;23154;52.542;13.362;2024-03-23T14:18:01;21.05;;;5.07;;
37267;SDS011;23154;52.542;13.362;2024-03-23T14:20:28;18.58;;;5.00;;
37267;SDS011;23154;52.542;13.362;2024-03-23T14:22:54;23.88;;;4.85;;
37267;SDS011;23154;52.542;13.362;2024-03-23T14:25:21;20.67;;;5.15;;
37267;SDS011;23154;52.542;13.362;2024-03-23T14:27:52;18.80;;;4.68;;
37267;SDS011;23154;52.542;13.362;2024-03-23T14:30:18;16.00;;;4.18;;
37267;SDS011;23154;52.542;13.362;2024-03-23T14:32:44;24.38;;;5.38;;
37267;SDS011;23154;52.542;13.362;2024-03-23T14:35:10;23.45;;;4.85;;
37267;SDS011;23154;52.542;13.362;2024-03-23T14:37:37;22.77;;;4.80;;
37267;SDS011;23154;52.542;13.362;2024-03-23T14:40:03;18.27;;;4.25;;
37267;SDS011;23154;52.542;13.362;2024-03-23T14:42:29;18.73;;;4.15;;
37267;SDS011;23154;52.542;13.362;2024-03-23T14:44:58;19.00;;;4.78;;
37267;SDS011;23154;52.542;13.362;2024-03-23T14:47:24;30.83;;;5.28;;
37267;SDS011;23154;52.542;13.362;2024-03-23T14:49:50;14.95;;;3.70;;
37267;SDS011;23154;52.542;13.362;2024-03-23T14:52:17;15.35;;;3.67;;
37267;SDS011;23154;52.542;13.362;2024-03-23T14:54:46;27.08;;;4.93;;
37267;SDS011;23154;52.542;13.362;2024-03-23T14:57:12;21.63;;;5.60;;
37267;SDS011;23154;52.542;13.362;2024-03-23T14:59:38;21.20;;;4.72;;
37267;SDS011;23154;52.542;13.362;2024-03-23T15:02:05;18.85;;;4.80;;
37267;SDS011;23154;52.542;13.362;2024-03-23T15:04:31;20.85;;;5.20;;
37267;SDS011;23154;52.542;13.362;2024-03-23T15:06:58;18.73;;;5.07;;
37267;SDS011;23154;52.542;13.362;2024-03-23T15:09:24;18.23;;;5.30;;
37267;SDS011;23154;52.542;13.362;2024-03-23T15:11:50;20.13;;;5.20;;
37267;SDS011;23154;52.542;13.362;2024-03-23T15:14:16;21.65;;;5.43;;
37267;SDS011;23154;52.542;13.362;2024-03-23T15:16:42;20.27;;;6.13;;
37267;SDS011;23154;52.542;13.362;2024-03-23T15:19:08;18.95;;;5.20;;
37267;SDS011;23154;52.542;13.362;2024-03-23T15:21:34;19.27;;;5.70;;
37267;SDS011;23154;52.542;13.362;2024-03-23T15:24:00;22.88;;;6.13;;
37267;SDS011;23154;52.542;13.362;2024-03-23T15:26:28;24.45;;;6.38;;
37267;SDS011;23154;52.542;13.362;2024-03-23T15:28:54;18.42;;;6.38;;
37267;SDS011;23154;52.542;13.362;2024-03-23T15:31:23;16.35;;;4.43;;
37267;SDS011;23154;52.542;13.362;2024-03-23T15:33:49;20.50;;;5.07;;